Aromas, California
Current Conditions -  °F | °C
As of 10:53 PM on Friday 24 Oct 2014 (Local Time) from KWVI Reporting Station
Clear Clear  
Wind Chill: 16°   Ceiling: Unl
Heat Index: 16°   Visibility: 10mi
Dew Point: 13°   Wind: 3mph
Humidity: 86%   Direction: 300°WNW
Pressure: 29.97"   Gusts: NA
Location:  36.88°N, 121.64°W
Report Text: KWVI 250553Z AUTO 30003KT 10SM CLR 16/13 A2997 RMK AO2 SLP150 T01560133 10189 20156 51006
Loading
Personal Weather Stations






























Interactive Weather Map New forecast layout! Learn more

10-Day Weather Forecast

Advertisements
Track Severe Weather on mobile